Time;durP1;ratioP1;P1;durP2;ratioP2;P2;SDS_P1;SDS_P2;PMS_P1;PMS_P2;Temp;Humidity;BMP_temperature;BMP_pressure;BME280_temperature;BME280_humidity;BME280_pressure;Samples;Min_cycle;Max_cycle;Signal;HPM_P1;HPM_P2
2021/06/21 00:01:55;;;;;;;;;;;18.50;99.90;;;;;;5075693;28;20032;-80
2021/06/21 00:04:21;;;;;;;5.25;1.55;;;18.40;99.90;;;;;;5075572;28;20077;-81
2021/06/21 00:06:47;;;;;;;;;;;18.40;99.90;;;;;;5073667;28;20036;-80
2021/06/21 00:09:12;;;;;;;;;;;18.30;99.90;;;;;;5073080;28;20045;-80
2021/06/21 00:11:37;;;;;;;;;;;18.30;99.90;;;;;;5072984;28;20098;-81
2021/06/21 00:14:03;;;;;;;;;;;18.30;99.90;;;;;;5073114;28;20039;-80
2021/06/21 00:16:29;;;;;;;;;;;18.30;99.90;;;;;;5074601;28;20491;-79
2021/06/21 00:18:54;;;;;;;;;;;18.30;99.90;;;;;;5073830;28;20051;-81
2021/06/21 00:21:20;;;;;;;1.60;1.10;;;18.30;99.90;;;;;;5075127;28;20075;-80
2021/06/21 00:23:46;;;;;;;5.00;1.30;;;18.20;99.90;;;;;;5073184;28;20018;-83
2021/06/21 00:26:12;;;;;;;;;;;18.20;99.90;;;;;;5073645;28;20050;-81
2021/06/21 00:28:37;;;;;;;5.50;1.20;;;18.20;99.90;;;;;;5073850;28;20118;-80
2021/06/21 00:31:03;;;;;;;;;;;18.20;99.90;;;;;;5075121;28;20109;-80
2021/06/21 00:33:28;;;;;;;5.20;1.70;;;18.20;99.90;;;;;;5072895;28;20040;-80
2021/06/21 00:35:54;;;;;;;;;;;18.20;99.90;;;;;;5073569;28;19947;-80
2021/06/21 00:38:19;;;;;;;;;;;18.20;99.90;;;;;;5072048;28;20042;-80
2021/06/21 00:40:45;;;;;;;;;;;18.20;99.90;;;;;;5072721;28;20358;-80
2021/06/21 00:43:10;;;;;;;;;;;18.30;99.90;;;;;;5072662;28;20473;-80
2021/06/21 00:45:36;;;;;;;;;;;18.30;99.90;;;;;;5073764;28;20553;-82
2021/06/21 00:48:01;;;;;;;;;;;18.30;99.90;;;;;;5074841;28;20043;-81
2021/06/21 00:50:28;;;;;;;;;;;18.30;99.90;;;;;;5073451;28;20491;-80
2021/06/21 00:52:58;;;;;;;;;;;18.40;99.90;;;;;;5073085;28;20053;-80
2021/06/21 00:55:25;;;;;;;6.20;2.00;;;18.40;99.90;;;;;;5073540;28;20043;-80
2021/06/21 00:57:51;;;;;;;;;;;18.40;99.90;;;;;;5072889;28;20048;-80
2021/06/21 01:00:19;;;;;;;8.40;2.50;;;18.30;99.90;;;;;;5072284;28;20172;-81
2021/06/21 01:02:45;;;;;;;;;;;18.30;99.90;;;;;;5072403;28;20014;-81
2021/06/21 01:05:12;;;;;;;;;;;18.30;99.90;;;;;;5072754;28;20191;-81
2021/06/21 01:07:38;;;;;;;3.30;1.90;;;18.30;99.90;;;;;;5073310;28;20043;-81
2021/06/21 01:10:07;;;;;;;7.60;1.70;;;18.30;99.90;;;;;;5072404;28;20036;-81
2021/06/21 01:12:47;;;;;;;;;;;18.30;99.90;;;;;;5074187;28;20331;-82
2021/06/21 01:15:24;;;;;;;8.40;2.10;;;18.30;99.90;;;;;;5072755;28;20043;-81
2021/06/21 01:17:57;;;;;;;;;;;18.20;99.90;;;;;;5073064;28;20243;-80
2021/06/21 01:20:41;;;;;;;;;;;18.30;99.90;;;;;;5072667;28;20040;-81
2021/06/21 01:23:25;;;;;;;;;;;18.20;99.90;;;;;;5072461;28;20498;-80
2021/06/21 01:26:05;;;;;;;4.55;1.90;;;18.20;99.90;;;;;;5073116;28;20036;-80
2021/06/21 01:28:58;;;;;;;;;;;18.10;99.90;;;;;;5073902;28;20051;-79
2021/06/21 01:31:46;;;;;;;4.10;1.70;;;18.10;99.90;;;;;;5074464;28;20081;-80
2021/06/21 01:34:13;;;;;;;7.50;2.20;;;18.10;99.90;;;;;;5074398;28;19910;-81
2021/06/21 01:36:40;;;;;;;;;;;18.10;99.90;;;;;;5073817;28;20041;-81
2021/06/21 01:39:05;;;;;;;;;;;18.10;99.90;;;;;;5074409;28;20104;-81
2021/06/21 01:41:34;;;;;;;;;;;18.00;99.90;;;;;;5073981;28;19973;-81
2021/06/21 01:44:01;;;;;;;;;;;17.90;99.90;;;;;;5073392;28;20144;-80
2021/06/21 01:46:29;;;;;;;;;;;18.00;99.90;;;;;;5073290;28;20035;-81
2021/06/21 01:48:56;;;;;;;;;;;18.00;99.90;;;;;;5073581;28;20028;-80
2021/06/21 01:51:23;;;;;;;;;;;18.00;99.90;;;;;;5075658;28;20051;-82
2021/06/21 01:53:51;;;;;;;;;;;18.00;99.90;;;;;;5073419;28;20058;-80
2021/06/21 01:56:21;;;;;;;;;;;18.00;99.90;;;;;;5075952;28;20043;-81
2021/06/21 01:58:47;;;;;;;;;;;17.90;99.90;;;;;;5073604;28;20111;-81
2021/06/21 02:01:16;;;;;;;;;;;17.90;99.90;;;;;;5074822;28;20032;-81
2021/06/21 02:03:47;;;;;;;;;;;17.90;99.90;;;;;;5073252;28;20045;-81
2021/06/21 02:06:12;;;;;;;;;;;17.90;99.90;;;;;;5073426;28;20438;-82
2021/06/21 02:08:38;;;;;;;;;;;17.90;99.90;;;;;;5074158;28;20098;-81
2021/06/21 02:11:05;;;;;;;;;;;18.00;99.90;;;;;;5074408;28;20031;-83
2021/06/21 02:13:32;;;;;;;;;;;18.00;99.90;;;;;;5074962;28;20042;-82
2021/06/21 02:15:58;;;;;;;;;;;17.90;99.90;;;;;;5074881;28;20087;-82
2021/06/21 02:18:24;;;;;;;;;;;17.80;99.90;;;;;;5074537;28;20126;-83
2021/06/21 02:20:50;;;;;;;;;;;17.80;99.90;;;;;;5074555;28;20113;-83
2021/06/21 02:23:16;;;;;;;;;;;17.70;99.90;;;;;;5074546;28;20043;-82
2021/06/21 02:25:43;;;;;;;;;;;17.70;99.90;;;;;;5076197;28;20046;-81
2021/06/21 02:28:09;;;;;;;6.70;1.93;;;17.70;99.90;;;;;;5075345;28;20526;-83
2021/06/21 02:30:36;;;;;;;;;;;17.60;99.90;;;;;;5073933;28;20462;-79
2021/06/21 02:33:02;;;;;;;;;;;17.70;99.90;;;;;;5071946;28;20455;-81
2021/06/21 02:35:28;;;;;;;;;;;17.50;99.90;;;;;;5070741;28;20024;-80
2021/06/21 02:37:53;;;;;;;;;;;17.60;99.90;;;;;;5070922;28;20060;-81
2021/06/21 02:40:19;;;;;;;;;;;17.70;99.90;;;;;;5070729;28;20494;-81
2021/06/21 02:42:45;;;;;;;;;;;17.60;99.90;;;;;;5070793;28;20036;-81
2021/06/21 02:45:11;;;;;;;;;;;17.60;99.90;;;;;;5070262;28;19943;-78
2021/06/21 02:47:37;;;;;;;;;;;17.70;99.90;;;;;;5070884;28;20403;-81
2021/06/21 02:50:04;;;;;;;;;;;17.60;99.90;;;;;;5070018;28;24138;-80
2021/06/21 02:52:48;;;;;;;;;;;17.60;99.90;;;;;;5069971;28;20024;-81
2021/06/21 02:55:22;;;;;;;;;;;17.60;99.90;;;;;;5070492;28;19959;-80
2021/06/21 02:58:07;;;;;;;;;;;17.70;99.90;;;;;;5069737;28;20106;-81
2021/06/21 03:00:33;;;;;;;;;;;17.60;99.90;;;;;;5071700;28;19919;-80
2021/06/21 03:02:59;;;;;;;;;;;17.60;99.90;;;;;;5073690;28;19904;-80
2021/06/21 03:05:26;;;;;;;;;;;17.60;99.90;;;;;;5074842;28;20059;-81
2021/06/21 03:07:52;;;;;;;;;;;17.60;99.90;;;;;;5073495;28;24099;-80
2021/06/21 03:10:18;;;;;;;;;;;17.60;99.90;;;;;;5075297;28;19965;-82
2021/06/21 03:12:45;;;;;;;;;;;17.50;99.90;;;;;;5075948;28;20070;-83
2021/06/21 03:15:12;;;;;;;;;;;17.50;99.90;;;;;;5076579;28;20038;-83
2021/06/21 03:17:38;;;;;;;;;;;17.50;99.90;;;;;;5075315;28;20051;-79
2021/06/21 03:20:04;;;;;;;;;;;17.50;99.90;;;;;;5073464;28;20341;-80
2021/06/21 03:22:30;;;;;;;;;;;17.50;99.90;;;;;;5073259;28;19911;-79
2021/06/21 03:24:55;;;;;;;;;;;17.40;99.90;;;;;;5073862;28;20226;-79
2021/06/21 03:27:31;;;;;;;;;;;17.30;99.90;;;;;;5073876;28;20039;-79
2021/06/21 03:29:57;;;;;;;;;;;17.30;99.90;;;;;;5074779;28;20045;-79
2021/06/21 03:32:27;;;;;;;;;;;17.30;99.90;;;;;;5073798;28;19919;-81
2021/06/21 03:34:54;;;;;;;;;;;17.30;99.90;;;;;;5073662;28;20042;-81
2021/06/21 03:37:19;;;;;;;;;;;17.30;99.90;;;;;;5073660;28;19912;-81
2021/06/21 03:39:45;;;;;;;;;;;17.30;99.90;;;;;;5072547;28;19904;-79
2021/06/21 03:42:10;;;;;;;;;;;17.30;99.90;;;;;;5073088;28;20038;-82
2021/06/21 03:44:36;;;;;;;;;;;17.30;99.90;;;;;;5073369;28;19912;-80
2021/06/21 03:47:01;;;;;;;;;;;17.20;99.90;;;;;;5073046;28;20041;-81
2021/06/21 03:49:27;;;;;;;;;;;17.30;99.90;;;;;;5073205;28;20389;-81
2021/06/21 03:51:53;;;;;;;;;;;17.40;99.90;;;;;;5073880;28;20385;-81
2021/06/21 03:54:18;;;;;;;;;;;17.40;99.90;;;;;;5074935;28;20043;-81
2021/06/21 03:56:44;;;;;;;;;;;17.40;99.90;;;;;;5075474;28;20078;-80
2021/06/21 03:59:09;;;;;;;;;;;17.40;99.90;;;;;;5073905;28;20407;-80
2021/06/21 04:01:34;;;;;;;;;;;17.50;99.90;;;;;;5073727;28;19911;-81
2021/06/21 04:04:01;;;;;;;;;;;17.40;99.90;;;;;;5073454;28;20407;-80
2021/06/21 04:06:27;;;;;;;;;;;17.40;99.90;;;;;;5073914;28;20403;-80
2021/06/21 04:08:52;;;;;;;;;;;17.50;99.90;;;;;;5073483;28;20032;-80
2021/06/21 04:11:18;;;;;;;;;;;17.60;99.90;;;;;;5072680;28;20028;-79
2021/06/21 04:13:43;;;;;;;;;;;17.70;99.90;;;;;;5074722;28;20085;-79
2021/06/21 04:16:09;;;;;;;;;;;17.70;99.90;;;;;;5075349;28;20044;-80
2021/06/21 04:18:34;;;;;;;;;;;17.70;99.90;;;;;;5073752;28;20480;-81
2021/06/21 04:20:59;;;;;;;;;;;17.90;99.90;;;;;;5073962;28;20032;-81
2021/06/21 04:23:25;;;;;;;;;;;18.00;99.90;;;;;;5073585;28;20393;-81
2021/06/21 04:25:50;;;;;;;;;;;18.00;99.90;;;;;;5073831;28;20024;-79
2021/06/21 04:28:16;;;;;;;;;;;18.00;99.90;;;;;;5074699;28;20291;-80
2021/06/21 04:30:44;;;;;;;;;;;17.90;99.90;;;;;;5073587;28;20108;-79
2021/06/21 04:33:09;;;;;;;;;;;18.10;99.90;;;;;;5074856;28;20041;-79
2021/06/21 04:35:35;;;;;;;;;;;18.10;99.90;;;;;;5075470;28;20064;-80
2021/06/21 04:38:00;;;;;;;;;;;18.10;99.90;;;;;;5074268;28;20359;-81
2021/06/21 04:40:28;;;;;;;;;;;18.30;99.90;;;;;;5073708;28;20115;-80
2021/06/21 04:42:54;;;;;;;8.43;3.03;;;18.80;99.90;;;;;;5073598;28;19905;-81
2021/06/21 04:45:19;;;;;;;7.35;3.38;;;19.10;99.90;;;;;;5073920;28;20352;-82
2021/06/21 04:47:46;;;;;;;5.78;2.20;;;19.00;99.90;;;;;;5072280;28;20046;-82
2021/06/21 04:50:13;;;;;;;;;;;19.30;99.90;;;;;;5072174;28;20029;-83
2021/06/21 04:52:42;;;;;;;3.85;1.85;;;21.10;99.90;;;;;;5074037;28;20152;-82
2021/06/21 04:55:10;;;;;;;5.35;2.33;;;22.60;99.90;;;;;;5079920;28;20020;-81
2021/06/21 04:57:36;;;;;;;3.33;1.85;;;22.60;99.90;;;;;;5081089;28;20020;-83
2021/06/21 05:00:06;;;;;;;5.13;2.05;;;22.40;99.90;;;;;;5081440;28;20070;-83
2021/06/21 05:02:31;;;;;;;3.63;1.92;;;21.50;99.90;;;;;;5081311;28;20059;-81
2021/06/21 05:04:57;;;;;;;9.23;1.83;;;20.90;99.90;;;;;;5082017;28;19904;-83
2021/06/21 05:07:22;;;;;;;4.22;2.22;;;20.50;99.90;;;;;;5080905;28;20035;-82
2021/06/21 05:09:49;;;;;;;6.75;1.25;;;20.20;99.90;;;;;;5079523;28;19904;-83
2021/06/21 05:12:15;;;;;;;5.60;1.83;;;20.30;99.90;;;;;;5084205;28;20025;-83
2021/06/21 05:14:40;;;;;;;3.20;1.13;;;20.40;99.90;;;;;;5084313;28;19909;-82
2021/06/21 05:17:10;;;;;;;2.92;1.25;;;20.50;99.90;;;;;;5089710;28;19961;-82
2021/06/21 05:19:36;;;;;;;8.82;2.08;;;20.60;99.90;;;;;;5102423;28;20016;-80
2021/06/21 05:22:03;;;;;;;8.52;2.20;;;20.50;99.90;;;;;;5092399;28;20016;-80
2021/06/21 05:24:29;;;;;;;10.50;1.45;;;20.40;99.90;;;;;;5095597;28;20024;-80
2021/06/21 05:26:56;;;;;;;4.50;1.50;;;20.20;99.90;;;;;;5096331;28;20026;-79
2021/06/21 05:29:22;;;;;;;2.22;0.90;;;20.30;99.90;;;;;;5090943;28;20024;-80
2021/06/21 05:31:47;;;;;;;4.18;1.20;;;20.30;99.90;;;;;;5092157;28;20024;-80
2021/06/21 05:34:13;;;;;;;6.57;1.42;;;20.30;99.90;;;;;;5093295;28;19912;-82
2021/06/21 05:36:38;;;;;;;5.43;2.15;;;20.80;99.90;;;;;;5091358;28;19911;-80
2021/06/21 05:39:04;;;;;;;8.07;2.17;;;22.40;99.90;;;;;;5090689;28;19958;-79
2021/06/21 05:41:30;;;;;;;6.47;2.60;;;23.30;99.90;;;;;;5091514;28;20402;-80
2021/06/21 05:43:56;;;;;;;3.25;1.23;;;22.70;99.90;;;;;;5090500;28;20119;-81
2021/06/21 05:46:21;;;;;;;6.90;2.03;;;21.90;99.90;;;;;;5090929;28;20024;-80
2021/06/21 05:48:47;;;;;;;4.15;2.25;;;21.40;99.90;;;;;;5090721;28;19955;-80
2021/06/21 05:51:13;;;;;;;5.97;2.15;;;21.30;99.90;;;;;;5090753;28;19908;-81
2021/06/21 05:53:38;;;;;;;2.90;1.55;;;21.40;99.90;;;;;;5090933;28;20034;-80
2021/06/21 05:56:04;;;;;;;6.95;1.95;;;21.70;99.90;;;;;;5092128;28;20351;-82
2021/06/21 05:58:30;;;;;;;6.75;2.15;;;21.90;99.90;;;;;;5091811;28;19954;-80
2021/06/21 06:00:56;;;;;;;3.72;1.10;;;22.00;99.90;;;;;;5092004;28;20062;-81
2021/06/21 06:03:22;;;;;;;1.95;1.30;;;22.00;99.90;;;;;;5091531;28;20047;-82
2021/06/21 06:05:47;;;;;;;6.22;2.00;;;22.10;99.90;;;;;;5091629;28;20279;-80
2021/06/21 06:08:13;;;;;;;3.55;1.65;;;22.10;99.90;;;;;;5084784;28;19931;-80
2021/06/21 06:10:39;;;;;;;5.57;1.30;;;22.00;99.90;;;;;;5071396;28;19909;-80
2021/06/21 06:13:05;;;;;;;4.80;1.30;;;22.30;99.90;;;;;;5070015;28;20364;-80
2021/06/21 06:15:31;;;;;;;7.65;1.92;;;22.70;99.90;;;;;;5070907;28;20014;-81
2021/06/21 06:17:57;;;;;;;5.28;1.33;;;22.80;99.90;;;;;;5071577;28;19909;-81
2021/06/21 06:20:22;;;;;;;7.63;1.50;;;22.70;99.90;;;;;;5072628;28;19909;-81
2021/06/21 06:22:48;;;;;;;3.15;1.40;;;23.20;99.90;;;;;;5073372;28;19909;-81
2021/06/21 06:25:14;;;;;;;4.53;1.83;;;23.50;99.90;;;;;;5072866;28;19911;-81
2021/06/21 06:27:40;;;;;;;5.10;1.52;;;24.10;99.90;;;;;;5073846;28;20025;-82
2021/06/21 06:30:07;;;;;;;5.53;1.42;;;24.90;99.90;;;;;;5077779;28;19904;-83
2021/06/21 06:32:36;;;;;;;3.10;1.23;;;25.70;99.90;;;;;;5075525;28;20028;-81
2021/06/21 06:35:06;;;;;;;4.72;1.00;;;27.60;99.90;;;;;;5076812;28;20028;-81
2021/06/21 06:37:32;;;;;;;5.80;1.55;;;28.40;99.90;;;;;;5078572;28;20031;-81
2021/06/21 06:39:57;;;;;;;2.53;1.00;;;27.90;99.90;;;;;;5077975;28;20013;-81
2021/06/21 06:42:23;;;;;;;3.50;1.23;;;27.40;99.90;;;;;;5080150;28;19908;-81
2021/06/21 06:44:49;;;;;;;3.93;1.20;;;28.10;99.90;;;;;;5079300;28;19971;-81
2021/06/21 06:47:14;;;;;;;6.97;1.50;;;28.90;99.90;;;;;;5080682;28;20325;-82
2021/06/21 06:49:40;;;;;;;3.95;1.05;;;30.70;99.90;;;;;;5078453;28;20036;-81
2021/06/21 06:52:06;;;;;;;5.77;1.47;;;30.90;99.90;;;;;;5079582;28;19908;-81
2021/06/21 06:54:47;;;;;;;6.63;1.40;;;31.00;99.90;;;;;;5079677;28;19904;-80
2021/06/21 06:57:13;;;;;;;2.80;0.57;;;31.20;99.90;;;;;;5080287;28;20077;-81
2021/06/21 06:59:40;;;;;;;4.93;0.80;;;29.90;99.90;;;;;;5078136;28;19905;-81
2021/06/21 07:02:08;;;;;;;3.03;1.20;;;27.80;99.90;;;;;;5078922;28;19912;-80
2021/06/21 07:04:36;;;;;;;7.00;1.70;;;27.70;99.90;;;;;;5077579;28;20002;-81
2021/06/21 07:07:02;;;;;;;;;;;27.20;99.90;;;;;;5077313;28;19911;-81
2021/06/21 07:09:29;;;;;;;2.30;0.70;;;26.60;99.90;;;;;;5093042;28;20060;-80
2021/06/21 07:11:55;;;;;;;3.85;0.70;;;26.50;99.90;;;;;;5096957;28;19910;-80
2021/06/21 07:14:21;;;;;;;1.40;0.50;;;25.90;99.90;;;;;;5097035;28;19908;-80
2021/06/21 07:16:47;;;;;;;4.05;1.65;;;25.80;99.90;;;;;;5096894;28;19914;-80
2021/06/21 07:19:18;;;;;;;4.78;1.48;;;26.00;99.90;;;;;;5092284;28;20023;-81
2021/06/21 07:21:44;;;;;;;2.50;0.90;;;25.70;99.90;;;;;;5089696;28;19939;-82
2021/06/21 07:24:10;;;;;;;;;;;25.90;99.90;;;;;;5086708;28;19912;-81
2021/06/21 07:26:37;;;;;;;3.20;1.30;;;26.00;99.90;;;;;;5086576;28;20162;-81
2021/06/21 07:29:03;;;;;;;;;;;25.90;99.90;;;;;;5086342;28;20036;-82
2021/06/21 07:31:29;;;;;;;3.40;1.00;;;25.70;99.90;;;;;;5083128;28;20044;-81
2021/06/21 07:33:54;;;;;;;;;;;25.30;99.90;;;;;;5077964;28;20082;-80
2021/06/21 07:36:20;;;;;;;3.00;1.10;;;25.10;99.90;;;;;;5079475;28;20057;-80
2021/06/21 07:38:46;;;;;;;1.40;0.60;;;25.10;99.90;;;;;;5076638;28;20250;-82
2021/06/21 07:41:11;;;;;;;4.83;0.73;;;25.70;99.90;;;;;;5077552;28;20031;-83
2021/06/21 07:43:37;;;;;;;2.57;1.37;;;25.30;99.90;;;;;;5078655;28;19911;-82
2021/06/21 07:46:05;;;;;;;2.13;1.77;;;25.00;99.90;;;;;;5076487;28;20367;-83
2021/06/21 07:48:30;;;;;;;;;;;25.30;99.90;;;;;;5079746;28;19961;-82
2021/06/21 07:50:56;;;;;;;;;;;25.70;99.90;;;;;;5079712;28;20022;-82
2021/06/21 07:53:21;;;;;;;;;;;26.00;99.90;;;;;;5081409;28;20040;-83
2021/06/21 07:55:47;;;;;;;5.20;1.80;;;26.50;99.90;;;;;;5081475;28;20042;-81
2021/06/21 07:58:12;;;;;;;;;;;26.70;99.90;;;;;;5082174;28;20040;-81
2021/06/21 08:00:41;;;;;;;;;;;26.50;99.90;;;;;;5081474;28;20036;-83
2021/06/21 08:03:10;;;;;;;;;;;26.50;99.90;;;;;;5082404;28;20407;-82
2021/06/21 08:05:36;;;;;;;;;;;26.30;99.90;;;;;;5082518;28;20043;-82
2021/06/21 08:08:01;;;;;;;;;;;26.40;99.90;;;;;;5085830;28;20453;-80
2021/06/21 08:10:27;;;;;;;;;;;26.70;99.90;;;;;;5082269;28;20040;-78
2021/06/21 08:12:52;;;;;;;;;;;27.60;99.90;;;;;;5081468;28;20036;-82
2021/06/21 08:15:18;;;;;;;;;;;27.50;99.90;;;;;;5078267;28;20040;-83
2021/06/21 08:17:43;;;;;;;;;;;27.30;99.90;;;;;;5078934;28;20123;-82
2021/06/21 08:20:10;;;;;;;;;;;27.50;99.90;;;;;;5079929;28;20028;-81
2021/06/21 08:22:35;;;;;;;;;;;27.50;99.90;;;;;;5086995;28;20040;-82
2021/06/21 08:25:01;;;;;;;;;;;27.30;99.90;;;;;;5099541;28;20049;-82
2021/06/21 08:27:28;;;;;;;;;;;27.00;99.90;;;;;;5098623;28;20032;-83
2021/06/21 08:29:54;;;;;;;;;;;27.10;99.90;;;;;;5098246;28;20042;-82
2021/06/21 08:32:20;;;;;;;;;;;27.50;99.90;;;;;;5098500;28;20032;-81
2021/06/21 08:34:45;;;;;;;;;;;27.80;99.90;;;;;;5098170;28;20441;-81
2021/06/21 08:37:11;;;;;;;;;;;27.70;99.90;;;;;;5098706;28;20054;-83
2021/06/21 08:39:38;;;;;;;;;;;28.00;99.90;;;;;;5100087;28;20050;-82
2021/06/21 08:42:05;;;;;;;;;;;28.40;99.90;;;;;;5099958;28;20032;-81
2021/06/21 08:44:33;;;;;;;;;;;28.90;99.90;;;;;;5100352;28;20036;-82
2021/06/21 08:46:58;;;;;;;;;;;28.90;99.90;;;;;;5100619;28;20031;-82
2021/06/21 08:49:24;;;;;;;;;;;28.10;99.90;;;;;;5098631;28;20112;-83
2021/06/21 08:51:50;;;;;;;;;;;27.50;99.90;;;;;;5099448;28;20491;-83
2021/06/21 08:54:16;;;;;;;;;;;27.90;99.90;;;;;;5099978;28;20054;-84
2021/06/21 08:56:41;;;;;;;;;;;28.60;99.90;;;;;;5099556;28;20565;-84
2021/06/21 08:59:07;;;;;;;;;;;28.30;99.90;;;;;;5101558;28;20055;-83
2021/06/21 09:01:36;;;;;;;;;;;29.50;99.90;;;;;;5101883;28;20036;-82
2021/06/21 09:04:02;;;;;;;;;;;30.00;99.90;;;;;;5103125;28;20092;-81
2021/06/21 09:06:34;;;;;;;;;;;29.50;99.90;;;;;;5100161;28;20070;-81
2021/06/21 09:08:59;;;;;;;;;;;28.00;99.90;;;;;;5100063;28;20104;-81
2021/06/21 09:11:44;;;;;;;;;;;27.60;99.90;;;;;;5093541;28;20040;-82
2021/06/21 09:14:24;;;;;;;;;;;27.30;99.90;;;;;;5075354;28;20040;-81
2021/06/21 09:16:50;;;;;;;;;;;27.10;99.90;;;;;;5072447;28;20097;-80
2021/06/21 09:19:19;;;;;;;;;;;27.80;99.90;;;;;;5071029;28;20050;-80
2021/06/21 09:21:45;;;;;;;;;;;27.30;99.90;;;;;;5072562;28;20051;-80
2021/06/21 09:24:22;;;;;;;;;;;27.40;99.90;;;;;;5071317;28;20510;-80
2021/06/21 09:26:49;;;;;;;;;;;27.30;99.90;;;;;;5070592;28;20127;-80
2021/06/21 09:29:15;;;;;;;;;;;28.20;99.90;;;;;;5081645;28;20171;-80
2021/06/21 09:31:54;;;;;;;;;;;29.20;99.90;;;;;;5091783;28;20071;-81
2021/06/21 09:34:21;;;;;;;;;;;28.90;99.90;;;;;;5090842;28;20048;-81
2021/06/21 09:36:47;;;;;;;;;;;28.20;99.90;;;;;;5091841;28;20066;-80
2021/06/21 09:39:16;;;;;;;;;;;28.40;99.90;;;;;;5091406;28;20074;-81
2021/06/21 09:41:42;;;;;;;;;;;28.50;99.90;;;;;;5093390;28;20104;-81
2021/06/21 09:44:07;;;;;;;;;;;29.10;99.90;;;;;;5093224;28;20290;-81
2021/06/21 09:46:33;;;;;;;;;;;29.40;99.90;;;;;;5093392;28;20059;-85
2021/06/21 09:48:58;;;;;;;;;;;29.40;99.90;;;;;;5093734;28;20042;-83
2021/06/21 09:51:24;;;;;;;;;;;29.50;99.90;;;;;;5093506;28;20193;-83
2021/06/21 09:53:53;;;;;;;;;;;29.10;99.90;;;;;;5075615;28;20318;-84
2021/06/21 09:56:38;;;;;;;;;;;29.30;99.90;;;;;;5075505;28;20032;-84
2021/06/21 09:59:16;;;;;;;;;;;29.50;99.90;;;;;;5076787;28;20036;-85
2021/06/21 10:01:42;;;;;;;;;;;29.80;99.90;;;;;;5086374;28;20035;-83
2021/06/21 10:04:23;;;;;;;;;;;29.40;99.90;;;;;;5079247;28;20062;-82
2021/06/21 10:06:49;;;;;;;;;;;28.90;99.90;;;;;;5082320;28;20028;-82
2021/06/21 10:09:14;;;;;;;;;;;29.10;99.90;;;;;;5075988;28;20093;-80
2021/06/21 10:11:45;;;;;;;;;;;28.70;99.90;;;;;;5073119;28;20039;-81
2021/06/21 10:14:11;;;;;;;;;;;28.40;99.90;;;;;;5074681;28;20040;-83
2021/06/21 10:16:37;;;;;;;;;;;28.20;99.90;;;;;;5079165;28;20032;-82
2021/06/21 10:19:03;;;;;;;;;;;28.80;99.90;;;;;;5078330;28;19955;-81
2021/06/21 10:21:30;;;;;;;;;;;29.20;99.90;;;;;;5084998;28;20032;-81
2021/06/21 10:23:57;;;;;;;0.95;0.80;;;28.40;99.90;;;;;;5087496;28;20047;-80
2021/06/21 10:26:23;;;;;;;2.67;0.90;;;27.80;99.90;;;;;;5088122;28;20076;-81
2021/06/21 10:28:50;;;;;;;2.67;0.87;;;27.50;99.90;;;;;;5088738;28;20077;-81
2021/06/21 10:31:24;;;;;;;1.50;0.60;;;27.30;99.90;;;;;;5089778;28;20068;-82
2021/06/21 10:33:50;;;;;;;;;;;27.20;99.90;;;;;;5086511;28;19908;-84
2021/06/21 10:36:15;;;;;;;;;;;27.40;99.90;;;;;;5090124;28;20103;-82
2021/06/21 10:38:41;;;;;;;;;;;27.40;99.90;;;;;;5090539;28;20032;-82
2021/06/21 10:41:07;;;;;;;;;;;27.40;99.90;;;;;;5099197;28;20035;-83
2021/06/21 10:43:53;;;;;;;1.45;0.70;;;27.80;99.90;;;;;;5097816;28;20070;-81
2021/06/21 10:46:31;;;;;;;;;;;29.00;99.90;;;;;;5083634;28;20070;-81
2021/06/21 10:48:57;;;;;;;;;;;30.10;99.90;;;;;;5081891;28;20036;-85
2021/06/21 10:51:48;;;;;;;;;;;29.80;99.90;;;;;;5089940;28;20074;-83
2021/06/21 10:54:37;;;;;;;;;;;28.80;99.90;;;;;;5089084;28;20071;-80
2021/06/21 10:57:16;;;;;;;;;;;29.00;99.90;;;;;;5085077;28;20130;-82
2021/06/21 10:59:45;;;;;;;;;;;28.90;99.90;;;;;;5083833;28;20407;-80
2021/06/21 11:02:10;;;;;;;;;;;28.10;99.90;;;;;;5083638;28;20505;-81
2021/06/21 11:04:37;;;;;;;;;;;28.40;99.90;;;;;;5077383;28;20028;-81
2021/06/21 11:07:14;;;;;;;;;;;28.70;99.90;;;;;;5086881;28;20445;-81
2021/06/21 11:09:46;;;;;;;;;;;29.50;99.90;;;;;;5090514;28;20490;-81
2021/06/21 11:12:21;;;;;;;;;;;30.80;99.90;;;;;;5089515;28;20131;-80
2021/06/21 11:15:06;;;;;;;;;;;31.40;99.90;;;;;;5080712;28;20500;-79
2021/06/21 11:17:32;;;;;;;;;;;31.90;99.90;;;;;;5068996;28;20122;-81
2021/06/21 11:20:20;;;;;;;;;;;32.40;99.90;;;;;;5073823;28;20082;-80
2021/06/21 11:22:49;;;;;;;7.50;1.30;;;32.40;99.10;;;;;;5085528;28;20043;-81
2021/06/21 11:25:27;;;;;;;;;;;32.20;99.90;;;;;;5077312;28;20144;-80
2021/06/21 11:27:53;;;;;;;;;;;32.10;99.90;;;;;;5072083;28;20418;-80
2021/06/21 11:30:21;;;;;;;;;;;31.80;99.90;;;;;;5074099;28;20133;-81
2021/06/21 11:32:55;;;;;;;;;;;31.40;99.90;;;;;;5075126;28;20102;-80
2021/06/21 11:35:39;;;;;;;;;;;31.10;99.90;;;;;;5083321;28;20038;-79
2021/06/21 11:38:24;;;;;;;;;;;30.80;99.90;;;;;;5083317;28;20053;-82
2021/06/21 11:41:08;;;;;;;;;;;30.50;99.90;;;;;;5090623;28;20045;-84
2021/06/21 11:43:47;;;;;;;;;;;30.10;99.90;;;;;;5092157;28;20042;-83
2021/06/21 11:46:42;;;;;;;;;;;30.50;99.90;;;;;;5092883;28;20388;-82
2021/06/21 11:49:18;;;;;;;;;;;31.00;99.90;;;;;;5066112;28;20103;-82
2021/06/21 11:51:56;;;;;;;;;;;31.20;99.90;;;;;;5091004;28;20031;-82
2021/06/21 11:54:22;;;;;;;;;;;31.10;99.90;;;;;;5091933;28;20435;-83
2021/06/21 11:57:00;;;;;;;2.30;1.10;;;30.60;99.90;;;;;;5092510;28;20040;-82
2021/06/21 11:59:29;;;;;;;;;;;30.20;99.90;;;;;;5088513;28;20032;-81
2021/06/21 12:02:02;;;;;;;;;;;30.10;99.90;;;;;;5091833;28;20031;-84
2021/06/21 12:04:28;;;;;;;;;;;30.10;99.90;;;;;;5091619;28;20046;-83
2021/06/21 12:06:57;;;;;;;;;;;29.70;99.90;;;;;;5089819;28;20043;-82
2021/06/21 12:09:23;;;;;;;;;;;29.80;99.90;;;;;;5085421;28;20039;-80
2021/06/21 12:11:52;;;;;;;;;;;29.90;99.90;;;;;;5086983;28;20031;-80
2021/06/21 12:14:25;;;;;;;;;;;29.80;99.90;;;;;;5084938;28;20069;-79
2021/06/21 12:17:01;;;;;;;;;;;29.20;99.90;;;;;;5088360;28;20034;-81
2021/06/21 12:19:26;;;;;;;;;;;29.00;99.90;;;;;;5087990;28;20398;-81
2021/06/21 12:21:52;;;;;;;;;;;29.30;99.90;;;;;;5085632;28;20052;-83
2021/06/21 12:24:17;;;;;;;;;;;29.60;99.90;;;;;;5092318;28;20043;-82
2021/06/21 12:26:43;;;;;;;;;;;29.90;99.90;;;;;;5103884;28;20042;-82
2021/06/21 12:29:19;;;;;;;;;;;29.10;99.90;;;;;;5100169;28;20035;-83
2021/06/21 12:32:03;;;;;;;1.65;1.15;;;28.90;99.90;;;;;;5088919;28;20064;-81
2021/06/21 12:34:46;;;;;;;;;;;29.20;99.90;;;;;;5091156;28;20020;-82
2021/06/21 12:37:23;;;;;;;0.60;0.60;;;29.70;99.90;;;;;;5093789;28;20062;-81
2021/06/21 12:39:56;;;;;;;1.65;0.70;;;29.70;99.90;;;;;;5092028;28;20099;-82
2021/06/21 12:42:22;;;;;;;;;;;29.90;99.90;;;;;;5090127;28;20009;-81
2021/06/21 12:44:48;;;;;;;;;;;30.10;99.90;;;;;;5083298;28;20068;-81
2021/06/21 12:47:20;;;;;;;2.80;1.40;;;30.20;99.90;;;;;;5086363;28;20076;-81
2021/06/21 12:49:47;;;;;;;0.70;0.70;;;30.40;99.90;;;;;;5088364;28;20089;-81
2021/06/21 12:52:13;;;;;;;;;;;30.40;99.90;;;;;;5083426;28;20036;-82
2021/06/21 12:54:39;;;;;;;;;;;30.40;99.70;;;;;;5063654;28;20154;-81
2021/06/21 12:57:04;;;;;;;;;;;30.50;99.90;;;;;;5082224;28;20051;-82
2021/06/21 12:59:32;;;;;;;;;;;30.30;99.90;;;;;;5082553;28;20039;-82
2021/06/21 13:02:03;;;;;;;0.60;0.60;;;29.70;99.20;;;;;;5090099;28;20026;-82
2021/06/21 13:04:29;;;;;;;;;;;29.60;99.90;;;;;;5100487;28;20393;-81
2021/06/21 13:07:05;;;;;;;;;;;29.80;99.90;;;;;;5088317;28;20056;-82
2021/06/21 13:09:40;;;;;;;;;;;30.00;98.80;;;;;;5080204;28;20492;-81
2021/06/21 13:12:06;;;;;;;0.60;0.60;;;30.10;99.90;;;;;;5079303;28;20057;-82
2021/06/21 13:14:35;;;;;;;1.10;0.70;;;29.90;99.40;;;;;;5076972;28;20560;-83
2021/06/21 13:17:30;;;;;;;;;;;29.80;99.90;;;;;;5079342;28;20481;-80
2021/06/21 13:20:05;;;;;;;0.95;0.70;;;29.80;99.60;;;;;;5067535;28;20040;-80
2021/06/21 13:22:32;;;;;;;3.00;1.35;;;29.90;99.90;;;;;;5079875;28;20049;-81
2021/06/21 13:25:00;;;;;;;2.20;0.70;;;29.90;99.90;;;;;;5080041;28;20015;-81
2021/06/21 13:27:28;;;;;;;;;;;29.60;99.40;;;;;;5078045;28;20029;-80
2021/06/21 13:29:57;;;;;;;1.88;1.48;;;29.40;99.60;;;;;;5077700;28;20044;-81
2021/06/21 13:32:25;;;;;;;5.80;1.20;;;29.60;99.90;;;;;;5076949;28;19934;-81
2021/06/21 13:34:52;;;;;;;;;;;29.80;99.60;;;;;;5080304;28;20093;-81
2021/06/21 13:37:36;;;;;;;;;;;28.90;99.40;;;;;;5095043;28;19908;-81
2021/06/21 13:40:04;;;;;;;;;;;28.30;99.90;;;;;;5089982;28;19904;-79
2021/06/21 13:42:38;;;;;;;;;;;29.00;99.90;;;;;;5086048;28;20352;-81
2021/06/21 13:45:09;;;;;;;;;;;29.60;98.90;;;;;;5073920;28;19922;-80
2021/06/21 13:47:35;;;;;;;;;;;29.80;98.30;;;;;;5075155;28;20287;-80
2021/06/21 13:50:03;;;;;;;;;;;29.80;99.30;;;;;;5074219;28;19911;-80
2021/06/21 13:52:37;;;;;;;;;;;30.00;98.30;;;;;;5073081;28;19904;-80
2021/06/21 13:55:02;;;;;;;;;;;29.90;99.90;;;;;;5074724;28;20368;-81